sensor_id;sensor_type;location;lat;lon;timestamp;P1;durP1;ratioP1;P2;durP2;ratioP2
13872;SDS011;7006;51.494;11.964;2024-02-26T00:01:06;8.30;;;6.70;;
13872;SDS011;7006;51.494;11.964;2024-02-26T00:03:34;8.50;;;7.60;;
13872;SDS011;7006;51.494;11.964;2024-02-26T00:06:06;9.63;;;7.07;;
13872;SDS011;7006;51.494;11.964;2024-02-26T00:08:35;9.57;;;7.50;;
13872;SDS011;7006;51.494;11.964;2024-02-26T00:11:03;8.80;;;6.53;;
13872;SDS011;7006;51.494;11.964;2024-02-26T00:13:31;9.00;;;7.30;;
13872;SDS011;7006;51.494;11.964;2024-02-26T00:15:59;8.97;;;6.77;;
13872;SDS011;7006;51.494;11.964;2024-02-26T00:18:28;9.27;;;7.30;;
13872;SDS011;7006;51.494;11.964;2024-02-26T00:20:56;9.63;;;7.47;;
13872;SDS011;7006;51.494;11.964;2024-02-26T00:23:28;8.93;;;7.43;;
13872;SDS011;7006;51.494;11.964;2024-02-26T00:25:56;11.00;;;8.30;;
13872;SDS011;7006;51.494;11.964;2024-02-26T00:28:25;10.30;;;7.40;;
13872;SDS011;7006;51.494;11.964;2024-02-26T00:30:54;12.03;;;8.33;;
13872;SDS011;7006;51.494;11.964;2024-02-26T00:33:22;11.33;;;8.90;;
13872;SDS011;7006;51.494;11.964;2024-02-26T00:35:50;9.50;;;7.67;;
13872;SDS011;7006;51.494;11.964;2024-02-26T00:38:19;10.17;;;8.00;;
13872;SDS011;7006;51.494;11.964;2024-02-26T00:40:49;11.73;;;9.17;;
13872;SDS011;7006;51.494;11.964;2024-02-26T00:43:18;11.07;;;8.70;;
13872;SDS011;7006;51.494;11.964;2024-02-26T00:45:46;13.73;;;8.70;;
13872;SDS011;7006;51.494;11.964;2024-02-26T00:48:14;12.17;;;9.23;;
13872;SDS011;7006;51.494;11.964;2024-02-26T00:50:42;12.50;;;8.73;;
13872;SDS011;7006;51.494;11.964;2024-02-26T00:53:11;12.43;;;9.37;;
13872;SDS011;7006;51.494;11.964;2024-02-26T00:55:39;10.83;;;8.43;;
13872;SDS011;7006;51.494;11.964;2024-02-26T00:58:09;11.93;;;8.77;;
13872;SDS011;7006;51.494;11.964;2024-02-26T01:00:38;13.30;;;9.30;;
13872;SDS011;7006;51.494;11.964;2024-02-26T01:03:06;13.70;;;9.43;;
13872;SDS011;7006;51.494;11.964;2024-02-26T01:05:35;12.97;;;9.47;;
13872;SDS011;7006;51.494;11.964;2024-02-26T01:08:04;18.83;;;9.77;;
13872;SDS011;7006;51.494;11.964;2024-02-26T01:10:32;15.40;;;8.87;;
13872;SDS011;7006;51.494;11.964;2024-02-26T01:13:00;12.47;;;9.20;;
13872;SDS011;7006;51.494;11.964;2024-02-26T01:15:31;11.47;;;8.90;;
13872;SDS011;7006;51.494;11.964;2024-02-26T01:18:02;12.47;;;9.00;;
13872;SDS011;7006;51.494;11.964;2024-02-26T01:20:30;11.33;;;8.50;;
13872;SDS011;7006;51.494;11.964;2024-02-26T01:22:58;12.97;;;9.43;;
13872;SDS011;7006;51.494;11.964;2024-02-26T01:25:26;12.97;;;9.63;;
13872;SDS011;7006;51.494;11.964;2024-02-26T01:27:55;12.73;;;9.30;;
13872;SDS011;7006;51.494;11.964;2024-02-26T01:30:23;14.63;;;10.03;;
13872;SDS011;7006;51.494;11.964;2024-02-26T01:32:54;13.77;;;10.70;;
13872;SDS011;7006;51.494;11.964;2024-02-26T01:35:22;15.53;;;11.40;;
13872;SDS011;7006;51.494;11.964;2024-02-26T01:37:50;14.43;;;10.33;;
13872;SDS011;7006;51.494;11.964;2024-02-26T01:40:18;13.60;;;9.30;;
13872;SDS011;7006;51.494;11.964;2024-02-26T01:42:46;11.87;;;9.50;;
13872;SDS011;7006;51.494;11.964;2024-02-26T01:45:15;13.90;;;10.23;;
13872;SDS011;7006;51.494;11.964;2024-02-26T01:47:47;14.30;;;10.93;;
13872;SDS011;7006;51.494;11.964;2024-02-26T01:50:19;13.77;;;10.80;;
13872;SDS011;7006;51.494;11.964;2024-02-26T01:52:48;14.20;;;10.50;;
13872;SDS011;7006;51.494;11.964;2024-02-26T01:55:17;14.50;;;10.43;;
13872;SDS011;7006;51.494;11.964;2024-02-26T01:57:47;15.40;;;10.47;;
13872;SDS011;7006;51.494;11.964;2024-02-26T02:00:18;15.73;;;10.03;;
13872;SDS011;7006;51.494;11.964;2024-02-26T02:02:46;11.97;;;9.23;;
13872;SDS011;7006;51.494;11.964;2024-02-26T02:05:15;13.50;;;10.60;;
13872;SDS011;7006;51.494;11.964;2024-02-26T02:07:46;12.57;;;9.37;;
13872;SDS011;7006;51.494;11.964;2024-02-26T02:10:15;13.37;;;9.80;;
13872;SDS011;7006;51.494;11.964;2024-02-26T02:12:43;12.23;;;9.20;;
13872;SDS011;7006;51.494;11.964;2024-02-26T02:15:11;13.97;;;9.17;;
13872;SDS011;7006;51.494;11.964;2024-02-26T02:17:39;17.20;;;9.57;;
13872;SDS011;7006;51.494;11.964;2024-02-26T02:20:08;13.60;;;9.30;;
13872;SDS011;7006;51.494;11.964;2024-02-26T02:22:40;11.53;;;8.77;;
13872;SDS011;7006;51.494;11.964;2024-02-26T02:25:10;10.30;;;8.27;;
13872;SDS011;7006;51.494;11.964;2024-02-26T02:27:38;13.60;;;9.00;;
13872;SDS011;7006;51.494;11.964;2024-02-26T02:30:07;12.93;;;9.20;;
13872;SDS011;7006;51.494;11.964;2024-02-26T02:32:36;11.70;;;8.73;;
13872;SDS011;7006;51.494;11.964;2024-02-26T02:35:06;9.10;;;7.43;;
13872;SDS011;7006;51.494;11.964;2024-02-26T02:37:35;9.50;;;7.17;;
13872;SDS011;7006;51.494;11.964;2024-02-26T02:40:06;9.10;;;7.50;;
13872;SDS011;7006;51.494;11.964;2024-02-26T02:42:35;11.90;;;8.07;;
13872;SDS011;7006;51.494;11.964;2024-02-26T02:45:04;12.23;;;7.70;;
13872;SDS011;7006;51.494;11.964;2024-02-26T02:47:35;10.10;;;7.90;;
13872;SDS011;7006;51.494;11.964;2024-02-26T02:50:04;13.87;;;8.50;;
13872;SDS011;7006;51.494;11.964;2024-02-26T02:52:33;13.40;;;8.57;;
13872;SDS011;7006;51.494;11.964;2024-02-26T02:55:01;11.43;;;7.07;;
13872;SDS011;7006;51.494;11.964;2024-02-26T02:57:32;13.03;;;8.30;;
13872;SDS011;7006;51.494;11.964;2024-02-26T03:00:06;10.30;;;8.17;;
13872;SDS011;7006;51.494;11.964;2024-02-26T03:02:35;11.27;;;8.20;;
13872;SDS011;7006;51.494;11.964;2024-02-26T03:05:04;12.53;;;7.80;;
13872;SDS011;7006;51.494;11.964;2024-02-26T03:07:32;9.73;;;7.80;;
13872;SDS011;7006;51.494;11.964;2024-02-26T03:10:01;9.47;;;7.40;;
13872;SDS011;7006;51.494;11.964;2024-02-26T03:12:32;9.07;;;7.50;;
13872;SDS011;7006;51.494;11.964;2024-02-26T03:15:01;9.60;;;7.97;;
13872;SDS011;7006;51.494;11.964;2024-02-26T03:17:29;10.77;;;8.03;;
13872;SDS011;7006;51.494;11.964;2024-02-26T03:19:57;11.27;;;7.80;;
13872;SDS011;7006;51.494;11.964;2024-02-26T03:22:26;10.10;;;7.53;;
13872;SDS011;7006;51.494;11.964;2024-02-26T03:24:54;9.37;;;7.60;;
13872;SDS011;7006;51.494;11.964;2024-02-26T03:27:22;11.37;;;8.40;;
13872;SDS011;7006;51.494;11.964;2024-02-26T03:29:53;9.30;;;7.60;;
13872;SDS011;7006;51.494;11.964;2024-02-26T03:32:21;12.60;;;8.80;;
13872;SDS011;7006;51.494;11.964;2024-02-26T03:34:50;14.33;;;9.43;;
13872;SDS011;7006;51.494;11.964;2024-02-26T03:37:19;11.40;;;8.10;;
13872;SDS011;7006;51.494;11.964;2024-02-26T03:39:47;12.43;;;9.00;;
13872;SDS011;7006;51.494;11.964;2024-02-26T03:42:15;12.67;;;8.27;;
13872;SDS011;7006;51.494;11.964;2024-02-26T03:44:44;11.53;;;9.13;;
13872;SDS011;7006;51.494;11.964;2024-02-26T03:47:15;11.60;;;8.77;;
13872;SDS011;7006;51.494;11.964;2024-02-26T03:49:46;10.93;;;8.07;;
13872;SDS011;7006;51.494;11.964;2024-02-26T03:52:14;11.27;;;8.40;;
13872;SDS011;7006;51.494;11.964;2024-02-26T03:54:43;13.03;;;9.43;;
13872;SDS011;7006;51.494;11.964;2024-02-26T03:57:11;12.40;;;8.37;;
13872;SDS011;7006;51.494;11.964;2024-02-26T03:59:39;12.03;;;9.07;;
13872;SDS011;7006;51.494;11.964;2024-02-26T04:02:07;13.77;;;9.20;;
13872;SDS011;7006;51.494;11.964;2024-02-26T04:04:38;12.70;;;9.97;;
13872;SDS011;7006;51.494;11.964;2024-02-26T04:07:06;14.47;;;11.30;;
13872;SDS011;7006;51.494;11.964;2024-02-26T04:09:36;15.50;;;11.50;;
13872;SDS011;7006;51.494;11.964;2024-02-26T04:12:05;13.80;;;11.10;;
13872;SDS011;7006;51.494;11.964;2024-02-26T04:14:33;14.80;;;11.50;;
13872;SDS011;7006;51.494;11.964;2024-02-26T04:17:01;16.77;;;12.57;;
13872;SDS011;7006;51.494;11.964;2024-02-26T04:19:30;16.13;;;12.33;;
13872;SDS011;7006;51.494;11.964;2024-02-26T04:22:01;20.03;;;13.80;;
13872;SDS011;7006;51.494;11.964;2024-02-26T04:24:30;18.40;;;13.90;;
13872;SDS011;7006;51.494;11.964;2024-02-26T04:26:58;18.17;;;14.00;;
13872;SDS011;7006;51.494;11.964;2024-02-26T04:29:26;17.20;;;13.90;;
13872;SDS011;7006;51.494;11.964;2024-02-26T04:31:55;21.27;;;15.23;;
13872;SDS011;7006;51.494;11.964;2024-02-26T04:34:23;19.40;;;14.60;;
13872;SDS011;7006;51.494;11.964;2024-02-26T04:36:51;20.80;;;15.50;;
13872;SDS011;7006;51.494;11.964;2024-02-26T04:39:22;21.47;;;15.23;;
13872;SDS011;7006;51.494;11.964;2024-02-26T04:41:51;19.30;;;14.80;;
13872;SDS011;7006;51.494;11.964;2024-02-26T04:44:19;19.57;;;14.60;;
13872;SDS011;7006;51.494;11.964;2024-02-26T04:46:47;23.23;;;16.50;;
13872;SDS011;7006;51.494;11.964;2024-02-26T04:49:15;23.73;;;16.67;;
13872;SDS011;7006;51.494;11.964;2024-02-26T04:51:43;22.80;;;16.20;;
13872;SDS011;7006;51.494;11.964;2024-02-26T04:54:13;26.60;;;18.37;;
13872;SDS011;7006;51.494;11.964;2024-02-26T04:56:45;27.37;;;19.20;;
13872;SDS011;7006;51.494;11.964;2024-02-26T04:59:13;27.30;;;19.07;;
13872;SDS011;7006;51.494;11.964;2024-02-26T05:01:41;24.50;;;17.90;;
13872;SDS011;7006;51.494;11.964;2024-02-26T05:04:09;27.73;;;19.50;;
13872;SDS011;7006;51.494;11.964;2024-02-26T05:06:37;29.40;;;20.40;;
13872;SDS011;7006;51.494;11.964;2024-02-26T05:09:06;30.97;;;20.67;;
13872;SDS011;7006;51.494;11.964;2024-02-26T05:11:34;35.07;;;20.80;;
13872;SDS011;7006;51.494;11.964;2024-02-26T05:14:05;28.80;;;20.97;;
13872;SDS011;7006;51.494;11.964;2024-02-26T05:16:33;29.87;;;20.67;;
13872;SDS011;7006;51.494;11.964;2024-02-26T05:19:01;31.60;;;22.27;;
13872;SDS011;7006;51.494;11.964;2024-02-26T05:21:31;31.03;;;21.20;;
13872;SDS011;7006;51.494;11.964;2024-02-26T05:23:59;33.00;;;22.07;;
13872;SDS011;7006;51.494;11.964;2024-02-26T05:26:27;32.37;;;21.47;;
13872;SDS011;7006;51.494;11.964;2024-02-26T05:28:55;30.50;;;20.40;;
13872;SDS011;7006;51.494;11.964;2024-02-26T05:31:27;32.37;;;20.67;;
13872;SDS011;7006;51.494;11.964;2024-02-26T05:33:56;33.93;;;21.43;;
13872;SDS011;7006;51.494;11.964;2024-02-26T05:36:24;35.70;;;22.40;;
13872;SDS011;7006;51.494;11.964;2024-02-26T05:38:58;31.40;;;21.60;;
13872;SDS011;7006;51.494;11.964;2024-02-26T05:41:26;31.70;;;22.10;;
13872;SDS011;7006;51.494;11.964;2024-02-26T05:43:54;34.50;;;22.97;;
13872;SDS011;7006;51.494;11.964;2024-02-26T05:46:23;35.80;;;23.37;;
13872;SDS011;7006;51.494;11.964;2024-02-26T05:48:54;34.10;;;22.83;;
13872;SDS011;7006;51.494;11.964;2024-02-26T05:51:22;37.33;;;23.47;;
13872;SDS011;7006;51.494;11.964;2024-02-26T05:53:51;35.07;;;24.40;;
13872;SDS011;7006;51.494;11.964;2024-02-26T05:56:21;37.30;;;25.10;;
13872;SDS011;7006;51.494;11.964;2024-02-26T05:58:49;33.70;;;24.23;;
13872;SDS011;7006;51.494;11.964;2024-02-26T06:01:19;44.00;;;26.60;;
13872;SDS011;7006;51.494;11.964;2024-02-26T06:03:48;38.97;;;24.53;;
13872;SDS011;7006;51.494;11.964;2024-02-26T06:06:19;38.73;;;25.53;;
13872;SDS011;7006;51.494;11.964;2024-02-26T06:08:48;37.50;;;24.37;;
13872;SDS011;7006;51.494;11.964;2024-02-26T06:11:16;39.73;;;25.27;;
13872;SDS011;7006;51.494;11.964;2024-02-26T06:13:47;40.37;;;26.43;;
13872;SDS011;7006;51.494;11.964;2024-02-26T06:16:15;44.03;;;27.63;;
13872;SDS011;7006;51.494;11.964;2024-02-26T06:18:44;45.50;;;25.03;;
13872;SDS011;7006;51.494;11.964;2024-02-26T06:21:12;38.33;;;25.60;;
13872;SDS011;7006;51.494;11.964;2024-02-26T06:23:43;39.03;;;26.37;;
13872;SDS011;7006;51.494;11.964;2024-02-26T06:26:11;39.50;;;24.33;;
13872;SDS011;7006;51.494;11.964;2024-02-26T06:28:39;39.50;;;24.10;;
13872;SDS011;7006;51.494;11.964;2024-02-26T06:31:08;36.83;;;23.60;;
13872;SDS011;7006;51.494;11.964;2024-02-26T06:33:36;38.13;;;22.47;;
13872;SDS011;7006;51.494;11.964;2024-02-26T06:36:04;35.90;;;22.83;;
13872;SDS011;7006;51.494;11.964;2024-02-26T06:38:33;32.43;;;22.57;;
13872;SDS011;7006;51.494;11.964;2024-02-26T06:41:03;36.67;;;22.40;;
13872;SDS011;7006;51.494;11.964;2024-02-26T06:43:31;33.63;;;22.17;;
13872;SDS011;7006;51.494;11.964;2024-02-26T06:46:00;35.07;;;22.53;;
13872;SDS011;7006;51.494;11.964;2024-02-26T06:48:28;38.50;;;23.80;;
13872;SDS011;7006;51.494;11.964;2024-02-26T06:50:56;36.20;;;22.70;;
13872;SDS011;7006;51.494;11.964;2024-02-26T06:53:24;33.87;;;23.67;;
13872;SDS011;7006;51.494;11.964;2024-02-26T06:55:53;34.97;;;22.90;;
13872;SDS011;7006;51.494;11.964;2024-02-26T06:58:23;41.00;;;22.80;;
13872;SDS011;7006;51.494;11.964;2024-02-26T07:00:52;33.00;;;23.43;;
13872;SDS011;7006;51.494;11.964;2024-02-26T07:03:20;33.10;;;21.50;;
13872;SDS011;7006;51.494;11.964;2024-02-26T07:05:49;31.13;;;22.00;;
13872;SDS011;7006;51.494;11.964;2024-02-26T07:08:18;36.37;;;24.87;;
13872;SDS011;7006;51.494;11.964;2024-02-26T07:10:47;34.20;;;24.40;;
13872;SDS011;7006;51.494;11.964;2024-02-26T07:13:15;32.10;;;21.53;;
13872;SDS011;7006;51.494;11.964;2024-02-26T07:15:46;33.40;;;22.20;;
13872;SDS011;7006;51.494;11.964;2024-02-26T07:18:14;30.30;;;19.93;;
13872;SDS011;7006;51.494;11.964;2024-02-26T07:20:42;35.37;;;19.80;;
13872;SDS011;7006;51.494;11.964;2024-02-26T07:23:10;26.30;;;18.80;;
13872;SDS011;7006;51.494;11.964;2024-02-26T07:25:38;27.60;;;18.50;;
13872;SDS011;7006;51.494;11.964;2024-02-26T07:28:07;30.30;;;18.80;;
13872;SDS011;7006;51.494;11.964;2024-02-26T07:30:36;27.37;;;17.90;;
13872;SDS011;7006;51.494;11.964;2024-02-26T07:33:06;27.50;;;19.63;;
13872;SDS011;7006;51.494;11.964;2024-02-26T07:35:35;30.37;;;19.73;;
13872;SDS011;7006;51.494;11.964;2024-02-26T07:38:03;31.00;;;19.13;;
13872;SDS011;7006;51.494;11.964;2024-02-26T07:40:32;27.30;;;19.70;;
13872;SDS011;7006;51.494;11.964;2024-02-26T07:43:00;28.53;;;20.20;;
13872;SDS011;7006;51.494;11.964;2024-02-26T07:45:28;25.60;;;19.13;;
13872;SDS011;7006;51.494;11.964;2024-02-26T07:47:56;32.23;;;19.17;;
13872;SDS011;7006;51.494;11.964;2024-02-26T07:50:27;27.47;;;17.20;;
13872;SDS011;7006;51.494;11.964;2024-02-26T07:52:55;30.67;;;19.03;;
13872;SDS011;7006;51.494;11.964;2024-02-26T07:55:23;25.83;;;18.60;;
13872;SDS011;7006;51.494;11.964;2024-02-26T07:57:51;26.73;;;17.40;;
13872;SDS011;7006;51.494;11.964;2024-02-26T08:00:17;49.57;;;19.13;;
13872;SDS011;7006;51.494;11.964;2024-02-26T08:02:46;27.67;;;20.27;;
13872;SDS011;7006;51.494;11.964;2024-02-26T08:05:14;24.23;;;17.77;;
13872;SDS011;7006;51.494;11.964;2024-02-26T08:07:47;25.23;;;18.47;;
13872;SDS011;7006;51.494;11.964;2024-02-26T08:10:16;28.73;;;21.30;;
13872;SDS011;7006;51.494;11.964;2024-02-26T08:12:44;25.40;;;17.60;;
13872;SDS011;7006;51.494;11.964;2024-02-26T08:15:13;25.40;;;17.80;;
13872;SDS011;7006;51.494;11.964;2024-02-26T08:17:41;24.40;;;16.97;;
13872;SDS011;7006;51.494;11.964;2024-02-26T08:20:09;25.70;;;16.93;;
13872;SDS011;7006;51.494;11.964;2024-02-26T08:22:38;23.90;;;17.67;;
13872;SDS011;7006;51.494;11.964;2024-02-26T08:25:09;25.63;;;18.77;;
13872;SDS011;7006;51.494;11.964;2024-02-26T08:27:38;24.10;;;16.63;;
13872;SDS011;7006;51.494;11.964;2024-02-26T08:30:07;23.10;;;16.27;;
13872;SDS011;7006;51.494;11.964;2024-02-26T08:32:41;22.57;;;16.30;;
13872;SDS011;7006;51.494;11.964;2024-02-26T08:35:10;25.70;;;16.40;;
13872;SDS011;7006;51.494;11.964;2024-02-26T08:37:38;22.30;;;17.37;;
13872;SDS011;7006;51.494;11.964;2024-02-26T08:40:09;25.53;;;17.47;;
13872;SDS011;7006;51.494;11.964;2024-02-26T08:42:38;22.97;;;16.90;;
13872;SDS011;7006;51.494;11.964;2024-02-26T08:45:07;25.70;;;17.20;;
13872;SDS011;7006;51.494;11.964;2024-02-26T08:47:36;22.70;;;18.13;;
13872;SDS011;7006;51.494;11.964;2024-02-26T08:50:04;23.67;;;16.70;;
13872;SDS011;7006;51.494;11.964;2024-02-26T08:52:34;23.47;;;17.30;;
13872;SDS011;7006;51.494;11.964;2024-02-26T08:55:03;24.83;;;17.03;;
13872;SDS011;7006;51.494;11.964;2024-02-26T08:57:36;23.53;;;17.10;;
13872;SDS011;7006;51.494;11.964;2024-02-26T09:00:05;24.67;;;18.10;;
13872;SDS011;7006;51.494;11.964;2024-02-26T09:02:34;22.77;;;17.40;;
13872;SDS011;7006;51.494;11.964;2024-02-26T09:05:03;22.90;;;17.30;;
13872;SDS011;7006;51.494;11.964;2024-02-26T09:07:32;22.50;;;16.53;;
13872;SDS011;7006;51.494;11.964;2024-02-26T09:10:01;23.43;;;17.77;;
13872;SDS011;7006;51.494;11.964;2024-02-26T09:12:29;25.87;;;17.17;;
13872;SDS011;7006;51.494;11.964;2024-02-26T09:15:00;24.57;;;17.20;;
13872;SDS011;7006;51.494;11.964;2024-02-26T09:17:28;21.43;;;17.30;;
13872;SDS011;7006;51.494;11.964;2024-02-26T09:19:56;20.90;;;15.33;;
13872;SDS011;7006;51.494;11.964;2024-02-26T09:22:25;22.57;;;17.00;;
13872;SDS011;7006;51.494;11.964;2024-02-26T09:24:53;23.00;;;16.80;;
13872;SDS011;7006;51.494;11.964;2024-02-26T09:27:21;22.33;;;15.70;;
13872;SDS011;7006;51.494;11.964;2024-02-26T09:29:49;20.43;;;15.57;;
13872;SDS011;7006;51.494;11.964;2024-02-26T09:32:20;21.47;;;15.97;;
13872;SDS011;7006;51.494;11.964;2024-02-26T09:34:50;20.40;;;15.80;;
13872;SDS011;7006;51.494;11.964;2024-02-26T09:37:18;24.83;;;16.00;;
13872;SDS011;7006;51.494;11.964;2024-02-26T09:39:46;22.20;;;16.53;;
13872;SDS011;7006;51.494;11.964;2024-02-26T09:42:14;22.03;;;16.23;;
13872;SDS011;7006;51.494;11.964;2024-02-26T09:44:46;21.57;;;16.37;;
13872;SDS011;7006;51.494;11.964;2024-02-26T09:47:20;23.90;;;16.13;;
13872;SDS011;7006;51.494;11.964;2024-02-26T09:49:48;23.67;;;16.87;;
13872;SDS011;7006;51.494;11.964;2024-02-26T09:52:17;19.57;;;15.53;;
13872;SDS011;7006;51.494;11.964;2024-02-26T09:54:47;20.60;;;16.53;;
13872;SDS011;7006;51.494;11.964;2024-02-26T09:57:15;22.97;;;15.83;;
13872;SDS011;7006;51.494;11.964;2024-02-26T09:59:42;22.03;;;16.47;;
13872;SDS011;7006;51.494;11.964;2024-02-26T10:02:12;19.33;;;15.23;;
13872;SDS011;7006;51.494;11.964;2024-02-26T10:04:43;19.70;;;15.20;;
13872;SDS011;7006;51.494;11.964;2024-02-26T10:07:12;18.77;;;14.57;;
13872;SDS011;7006;51.494;11.964;2024-02-26T10:09:40;20.50;;;15.17;;
13872;SDS011;7006;51.494;11.964;2024-02-26T10:12:10;26.43;;;15.03;;
13872;SDS011;7006;51.494;11.964;2024-02-26T10:14:40;19.27;;;14.67;;
13872;SDS011;7006;51.494;11.964;2024-02-26T10:17:08;19.33;;;13.73;;
13872;SDS011;7006;51.494;11.964;2024-02-26T10:19:37;21.63;;;14.83;;
13872;SDS011;7006;51.494;11.964;2024-02-26T10:22:07;19.10;;;13.87;;
13872;SDS011;7006;51.494;11.964;2024-02-26T10:24:36;18.97;;;14.73;;
13872;SDS011;7006;51.494;11.964;2024-02-26T10:27:04;21.47;;;14.17;;
13872;SDS011;7006;51.494;11.964;2024-02-26T10:29:32;17.40;;;12.83;;
13872;SDS011;7006;51.494;11.964;2024-02-26T10:32:01;20.30;;;14.37;;
13872;SDS011;7006;51.494;11.964;2024-02-26T10:34:29;21.03;;;14.13;;
13872;SDS011;7006;51.494;11.964;2024-02-26T10:36:57;16.67;;;12.60;;
13872;SDS011;7006;51.494;11.964;2024-02-26T10:39:28;17.17;;;12.77;;
13872;SDS011;7006;51.494;11.964;2024-02-26T10:41:56;17.37;;;12.73;;
13872;SDS011;7006;51.494;11.964;2024-02-26T10:44:26;16.70;;;13.87;;
13872;SDS011;7006;51.494;11.964;2024-02-26T10:46:54;16.17;;;12.77;;
13872;SDS011;7006;51.494;11.964;2024-02-26T10:49:23;18.00;;;13.70;;
13872;SDS011;7006;51.494;11.964;2024-02-26T10:51:54;16.00;;;13.47;;
13872;SDS011;7006;51.494;11.964;2024-02-26T10:54:25;15.40;;;12.67;;
13872;SDS011;7006;51.494;11.964;2024-02-26T10:56:57;17.40;;;13.13;;
13872;SDS011;7006;51.494;11.964;2024-02-26T10:59:26;17.80;;;13.00;;
13872;SDS011;7006;51.494;11.964;2024-02-26T11:01:54;19.20;;;12.53;;
13872;SDS011;7006;51.494;11.964;2024-02-26T11:04:23;16.50;;;13.07;;
13872;SDS011;7006;51.494;11.964;2024-02-26T11:06:52;18.43;;;12.13;;
13872;SDS011;7006;51.494;11.964;2024-02-26T11:09:22;16.90;;;12.23;;
13872;SDS011;7006;51.494;11.964;2024-02-26T11:11:53;16.47;;;11.87;;
13872;SDS011;7006;51.494;11.964;2024-02-26T11:14:21;17.80;;;13.33;;
13872;SDS011;7006;51.494;11.964;2024-02-26T11:16:54;15.57;;;12.43;;
13872;SDS011;7006;51.494;11.964;2024-02-26T11:19:24;15.10;;;12.30;;
13872;SDS011;7006;51.494;11.964;2024-02-26T11:21:52;14.07;;;12.23;;
13872;SDS011;7006;51.494;11.964;2024-02-26T11:24:21;13.97;;;11.67;;
13872;SDS011;7006;51.494;11.964;2024-02-26T11:26:50;14.80;;;11.33;;
13872;SDS011;7006;51.494;11.964;2024-02-26T11:29:24;14.33;;;11.53;;
13872;SDS011;7006;51.494;11.964;2024-02-26T11:31:54;15.30;;;12.50;;
13872;SDS011;7006;51.494;11.964;2024-02-26T11:34:25;14.60;;;11.40;;
13872;SDS011;7006;51.494;11.964;2024-02-26T11:36:54;13.40;;;10.77;;
13872;SDS011;7006;51.494;11.964;2024-02-26T11:39:22;14.80;;;11.73;;
13872;SDS011;7006;51.494;11.964;2024-02-26T11:41:54;14.10;;;10.80;;
13872;SDS011;7006;51.494;11.964;2024-02-26T11:44:28;18.00;;;10.67;;
13872;SDS011;7006;51.494;11.964;2024-02-26T11:46:56;16.40;;;13.10;;
13872;SDS011;7006;51.494;11.964;2024-02-26T11:49:30;13.40;;;11.40;;
13872;SDS011;7006;51.494;11.964;2024-02-26T11:51:59;17.10;;;12.40;;
13872;SDS011;7006;51.494;11.964;2024-02-26T11:54:44;17.87;;;10.80;;
13872;SDS011;7006;51.494;11.964;2024-02-26T11:57:23;14.50;;;9.50;;
13872;SDS011;7006;51.494;11.964;2024-02-26T11:59:52;15.93;;;10.83;;
13872;SDS011;7006;51.494;11.964;2024-02-26T12:05:14;15.20;;;11.10;;
13872;SDS011;7006;51.494;11.964;2024-02-26T12:07:45;12.43;;;10.30;;
13872;SDS011;7006;51.494;11.964;2024-02-26T12:13:07;12.30;;;9.60;;
13872;SDS011;7006;51.494;11.964;2024-02-26T12:15:38;13.60;;;10.03;;
13872;SDS011;7006;51.494;11.964;2024-02-26T12:18:08;14.30;;;10.37;;
13872;SDS011;7006;51.494;11.964;2024-02-26T12:20:37;17.03;;;11.33;;
13872;SDS011;7006;51.494;11.964;2024-02-26T12:23:05;12.60;;;9.60;;
13872;SDS011;7006;51.494;11.964;2024-02-26T12:25:33;13.43;;;9.10;;
13872;SDS011;7006;51.494;11.964;2024-02-26T12:28:01;12.80;;;9.20;;
13872;SDS011;7006;51.494;11.964;2024-02-26T12:30:32;12.87;;;9.90;;
13872;SDS011;7006;51.494;11.964;2024-02-26T12:33:01;15.60;;;9.17;;
13872;SDS011;7006;51.494;11.964;2024-02-26T12:35:29;12.60;;;9.63;;
13872;SDS011;7006;51.494;11.964;2024-02-26T12:37:59;13.30;;;9.23;;
13872;SDS011;7006;51.494;11.964;2024-02-26T12:40:29;13.87;;;9.07;;
13872;SDS011;7006;51.494;11.964;2024-02-26T12:42:54;13.50;;;9.40;;
13872;SDS011;7006;51.494;11.964;2024-02-26T12:45:22;12.70;;;9.10;;
13872;SDS011;7006;51.494;11.964;2024-02-26T12:47:54;11.97;;;9.33;;
13872;SDS011;7006;51.494;11.964;2024-02-26T12:50:22;11.93;;;8.90;;
13872;SDS011;7006;51.494;11.964;2024-02-26T12:52:50;15.27;;;10.97;;
13872;SDS011;7006;51.494;11.964;2024-02-26T12:55:19;11.43;;;9.27;;
13872;SDS011;7006;51.494;11.964;2024-02-26T12:57:48;12.00;;;9.40;;
13872;SDS011;7006;51.494;11.964;2024-02-26T13:00:18;10.30;;;8.67;;
13872;SDS011;7006;51.494;11.964;2024-02-26T13:02:47;11.57;;;9.73;;
13872;SDS011;7006;51.494;11.964;2024-02-26T13:05:19;16.23;;;12.23;;
13872;SDS011;7006;51.494;11.964;2024-02-26T13:07:48;16.03;;;13.90;;
13872;SDS011;7006;51.494;11.964;2024-02-26T13:10:18;15.60;;;12.67;;
13872;SDS011;7006;51.494;11.964;2024-02-26T13:12:47;15.47;;;13.40;;
13872;SDS011;7006;51.494;11.964;2024-02-26T13:15:18;17.20;;;11.67;;
13872;SDS011;7006;51.494;11.964;2024-02-26T13:17:47;13.10;;;10.80;;
13872;SDS011;7006;51.494;11.964;2024-02-26T13:20:27;14.23;;;11.67;;
13872;SDS011;7006;51.494;11.964;2024-02-26T13:23:00;18.73;;;13.10;;
13872;SDS011;7006;51.494;11.964;2024-02-26T13:25:30;15.97;;;12.30;;
13872;SDS011;7006;51.494;11.964;2024-02-26T13:28:05;16.30;;;12.80;;
13872;SDS011;7006;51.494;11.964;2024-02-26T13:30:37;16.40;;;13.27;;
13872;SDS011;7006;51.494;11.964;2024-02-26T13:33:08;11.97;;;10.07;;
13872;SDS011;7006;51.494;11.964;2024-02-26T13:35:40;11.40;;;9.30;;
13872;SDS011;7006;51.494;11.964;2024-02-26T13:38:08;13.20;;;11.20;;
13872;SDS011;7006;51.494;11.964;2024-02-26T13:40:38;12.60;;;9.50;;
13872;SDS011;7006;51.494;11.964;2024-02-26T13:43:07;11.37;;;9.30;;
13872;SDS011;7006;51.494;11.964;2024-02-26T13:45:37;13.90;;;10.40;;
13872;SDS011;7006;51.494;11.964;2024-02-26T13:48:07;16.07;;;9.63;;
13872;SDS011;7006;51.494;11.964;2024-02-26T13:50:36;11.40;;;9.50;;
13872;SDS011;7006;51.494;11.964;2024-02-26T13:53:09;10.40;;;8.80;;
13872;SDS011;7006;51.494;11.964;2024-02-26T13:55:40;11.00;;;9.80;;
13872;SDS011;7006;51.494;11.964;2024-02-26T13:58:11;11.43;;;9.40;;
13872;SDS011;7006;51.494;11.964;2024-02-26T14:00:40;12.40;;;10.13;;
13872;SDS011;7006;51.494;11.964;2024-02-26T14:03:09;14.80;;;9.60;;
13872;SDS011;7006;51.494;11.964;2024-02-26T14:05:37;12.73;;;10.37;;
13872;SDS011;7006;51.494;11.964;2024-02-26T14:08:08;13.80;;;9.80;;
13872;SDS011;7006;51.494;11.964;2024-02-26T14:10:38;15.20;;;10.80;;
13872;SDS011;7006;51.494;11.964;2024-02-26T14:13:06;13.73;;;10.30;;
13872;SDS011;7006;51.494;11.964;2024-02-26T14:15:34;12.67;;;9.87;;
13872;SDS011;7006;51.494;11.964;2024-02-26T14:18:04;17.10;;;10.70;;
13872;SDS011;7006;51.494;11.964;2024-02-26T14:20:32;14.13;;;10.97;;
13872;SDS011;7006;51.494;11.964;2024-02-26T14:23:01;15.03;;;11.57;;
13872;SDS011;7006;51.494;11.964;2024-02-26T14:25:29;19.57;;;12.50;;
13872;SDS011;7006;51.494;11.964;2024-02-26T14:27:57;20.00;;;14.50;;
13872;SDS011;7006;51.494;11.964;2024-02-26T14:30:25;18.90;;;14.40;;
13872;SDS011;7006;51.494;11.964;2024-02-26T14:32:56;20.37;;;15.70;;
13872;SDS011;7006;51.494;11.964;2024-02-26T14:35:24;21.20;;;15.97;;
13872;SDS011;7006;51.494;11.964;2024-02-26T14:37:53;18.20;;;14.37;;
13872;SDS011;7006;51.494;11.964;2024-02-26T14:40:25;20.90;;;13.33;;
13872;SDS011;7006;51.494;11.964;2024-02-26T14:42:57;17.60;;;12.63;;